createdAt,value
2022-08-23T20:23:54.016Z,101905.41
2022-08-23T20:26:21.610Z,101912.13
2022-08-23T20:28:59.101Z,101914.31
2022-08-23T20:31:28.434Z,101912.28
2022-08-23T20:33:56.398Z,101917.53
2022-08-23T20:36:24.776Z,101916.09
2022-08-23T20:38:52.019Z,101930.59
2022-08-23T20:41:19.050Z,101930.47
2022-08-23T20:43:48.927Z,101936.06
2022-08-23T20:46:16.035Z,101932.06
2022-08-23T20:48:42.972Z,101933.16
2022-08-23T20:51:10.086Z,101923.22
2022-08-23T20:53:38.922Z,101925.50
2022-08-23T20:56:05.966Z,101926.59
2022-08-23T20:58:33.023Z,101931.28
2022-08-23T21:01:00.195Z,101926.81
2022-08-23T21:03:27.207Z,101932.94
2022-08-23T21:06:08.601Z,101928.72
2022-08-23T21:08:37.938Z,101920.34
2022-08-23T21:11:10.648Z,101921.09
2022-08-23T21:13:41.400Z,101915.63
2022-08-23T21:16:08.265Z,101922.50
2022-08-23T21:18:35.195Z,101917.06
2022-08-23T21:21:02.402Z,101916.94
2022-08-23T21:23:29.730Z,101918.88
2022-08-23T21:25:58.252Z,101910.66
2022-08-23T21:28:25.875Z,101911.75
2022-08-23T21:30:53.224Z,101911.03
2022-08-23T21:33:21.979Z,101915.50
2022-08-23T21:35:49.117Z,101910.66
2022-08-23T21:38:16.100Z,101915.25
2022-08-23T21:40:43.530Z,101909.31
2022-08-23T21:43:10.541Z,101901.81
2022-08-23T21:45:37.651Z,101903.63
2022-08-23T21:48:08.483Z,101907.25
2022-08-23T21:50:35.677Z,101900.97
2022-08-23T21:53:02.473Z,101901.44
2022-08-23T21:55:30.093Z,101892.81
2022-08-23T21:58:03.450Z,101907.19
2022-08-23T22:00:30.318Z,101905.00
2022-08-23T22:02:57.501Z,101901.84
2022-08-23T22:05:26.544Z,101908.19
2022-08-23T22:07:53.842Z,101908.97
2022-08-23T22:10:21.164Z,101900.38
2022-08-23T22:12:48.251Z,101906.03
2022-08-23T22:15:15.121Z,101908.28
2022-08-23T22:17:42.076Z,101909.75
2022-08-23T22:20:10.282Z,101910.22
2022-08-23T22:22:37.636Z,101903.50
2022-08-23T22:25:05.143Z,101909.88
2022-08-23T22:27:32.787Z,101899.84
2022-08-23T22:30:00.461Z,101899.00
2022-08-23T22:32:27.459Z,101902.38
2022-08-23T22:34:54.527Z,101902.81
2022-08-23T22:37:21.541Z,101900.50
2022-08-23T22:39:48.391Z,101910.16
2022-08-23T22:42:16.463Z,101905.16
2022-08-23T22:44:43.281Z,101897.06
2022-08-23T22:47:10.273Z,101892.31
2022-08-23T22:49:38.386Z,101896.09
2022-08-23T22:52:05.253Z,101894.38
2022-08-23T22:54:32.325Z,101892.06
2022-08-23T22:56:59.422Z,101887.47
2022-08-23T22:59:32.362Z,101899.38
2022-08-23T23:02:00.496Z,101896.09
2022-08-23T23:04:30.527Z,101890.47
2022-08-23T23:06:57.482Z,101879.34
2022-08-23T23:09:25.151Z,101881.25
2022-08-23T23:11:55.341Z,101888.75
2022-08-23T23:14:22.675Z,101893.13
2022-08-23T23:16:50.069Z,101893.47
2022-08-23T23:19:36.510Z,101889.09
2022-08-23T23:22:04.550Z,101889.84
2022-08-23T23:24:36.573Z,101894.94
2022-08-23T23:27:03.756Z,101894.50
2022-08-23T23:29:32.349Z,101894.50
2022-08-23T23:31:59.730Z,101894.59
2022-08-23T23:34:27.988Z,101890.81
2022-08-23T23:36:56.447Z,101893.84
2022-08-23T23:39:23.529Z,101896.97
2022-08-23T23:41:50.891Z,101895.41
2022-08-23T23:44:22.531Z,101904.53
2022-08-23T23:46:58.183Z,101905.00
2022-08-23T23:49:32.949Z,101897.69
2022-08-23T23:52:00.971Z,101896.81
2022-08-23T23:54:28.022Z,101897.00
2022-08-23T23:56:55.599Z,101905.53
2022-08-23T23:59:22.423Z,101907.44
